Time;durP1;ratioP1;P1;durP2;ratioP2;P2;SDS_P1;SDS_P2;PMS_P1;PMS_P2;Temp;Humidity;BMP_temperature;BMP_pressure;BME280_temperature;BME280_humidity;BME280_pressure;Samples;Min_cycle;Max_cycle;Signal;HPM_P1;HPM_P2
2023/12/04 00:01:50;;;;;;;49.10;27.47;;;0.50;99.90;;;;;;5093027;28;20121;-84
2023/12/04 00:04:16;;;;;;;48.23;28.77;;;-0.40;99.90;;;;;;5077412;28;20471;-85
2023/12/04 00:06:42;;;;;;;47.47;27.13;;;1.10;99.90;;;;;;5094010;28;20040;-84
2023/12/04 00:09:07;;;;;;;52.13;27.67;;;-0.20;99.90;;;;;;5111402;28;20039;-84
2023/12/04 00:11:33;;;;;;;50.83;28.33;;;-0.20;99.90;;;;;;5077154;28;20385;-84
2023/12/04 00:13:59;;;;;;;47.60;29.03;;;-0.20;99.90;;;;;;5094617;28;20496;-84
2023/12/04 00:16:25;;;;;;;52.50;31.38;;;0.50;99.90;;;;;;5111160;28;20070;-84
2023/12/04 00:18:51;;;;;;;49.00;28.23;;;-0.30;99.90;;;;;;5094607;28;20479;-84
2023/12/04 00:21:17;;;;;;;55.87;29.73;;;0.70;99.90;;;;;;5060964;28;20285;-86
2023/12/04 00:23:42;;;;;;;47.43;30.10;;;-0.20;99.90;;;;;;5077555;28;20542;-84
2023/12/04 00:26:08;;;;;;;49.97;30.40;;;1.20;99.90;;;;;;5081361;28;20517;-84
2023/12/04 00:28:37;;;;;;;48.37;29.97;;;-0.20;99.90;;;;;;5097625;28;20040;-84
2023/12/04 00:31:03;;;;;;;56.35;29.95;;;-0.30;99.90;;;;;;5081320;28;20410;-83
2023/12/04 00:33:29;;;;;;;47.00;28.37;;;-0.20;99.90;;;;;;5114770;28;20035;-84
2023/12/04 00:35:54;;;;;;;49.67;28.27;;;0.90;99.90;;;;;;5115263;28;20516;-84
2023/12/04 00:38:20;;;;;;;53.87;29.47;;;0.80;99.90;;;;;;5097770;28;20236;-86
2023/12/04 00:40:46;;;;;;;53.70;28.63;;;-0.20;99.90;;;;;;5080704;28;20051;-84
2023/12/04 00:43:11;;;;;;;58.03;29.60;;;1.00;99.90;;;;;;5079325;28;20035;-84
2023/12/04 00:45:37;;;;;;;47.73;27.87;;;0.90;99.90;;;;;;5097500;28;20490;-84
2023/12/04 00:48:03;;;;;;;48.13;25.80;;;0.20;99.90;;;;;;5114959;28;20044;-84
2023/12/04 00:50:28;;;;;;;57.20;29.47;;;-0.30;99.90;;;;;;5097182;28;20130;-84
2023/12/04 00:52:54;;;;;;;52.07;30.63;;;0.00;99.90;;;;;;5114846;28;20043;-83
2023/12/04 00:55:20;;;;;;;50.07;28.50;;;-0.30;99.90;;;;;;5097209;28;20040;-84
2023/12/04 00:57:46;;;;;;;45.50;27.70;;;0.20;99.90;;;;;;5070664;28;20052;-83
2023/12/04 01:00:12;;;;;;;54.90;27.83;;;-0.30;99.90;;;;;;5077150;28;20060;-83
2023/12/04 01:02:38;;;;;;;52.05;28.20;;;-0.30;99.90;;;;;;5084945;28;20127;-84
2023/12/04 01:05:04;;;;;;;51.37;28.67;;;0.00;99.90;;;;;;5114677;28;20130;-84
2023/12/04 01:07:30;;;;;;;50.27;29.20;;;-0.30;99.90;;;;;;5113657;28;20043;-84
2023/12/04 01:09:55;;;;;;;48.00;28.57;;;-0.30;99.90;;;;;;5096965;28;20287;-84
2023/12/04 01:12:21;;;;;;;47.73;27.87;;;0.60;99.90;;;;;;5097565;28;20048;-84
2023/12/04 01:14:47;;;;;;;48.25;29.48;;;0.80;99.90;;;;;;5113247;28;20119;-84
2023/12/04 01:17:13;;;;;;;48.70;26.60;;;1.00;99.90;;;;;;5112224;28;20469;-84
2023/12/04 01:19:38;;;;;;;52.33;29.73;;;-0.30;99.90;;;;;;5096801;28;20074;-84
2023/12/04 01:22:05;;;;;;;50.53;26.87;;;-0.20;99.90;;;;;;5097266;28;20127;-84
2023/12/04 01:24:31;;;;;;;53.00;27.77;;;-0.30;99.90;;;;;;5113570;28;20035;-84
2023/12/04 01:26:57;;;;;;;58.33;27.53;;;1.20;99.90;;;;;;5097055;28;20039;-83
2023/12/04 01:29:22;;;;;;;50.57;27.30;;;0.60;99.90;;;;;;5113846;28;20047;-84
2023/12/04 01:31:48;;;;;;;50.30;28.67;;;0.20;99.90;;;;;;5096705;28;20048;-84
2023/12/04 01:34:14;;;;;;;53.17;27.43;;;-0.30;99.90;;;;;;5114150;28;20398;-84
2023/12/04 01:36:42;;;;;;;51.73;26.73;;;1.00;99.90;;;;;;5111620;28;20039;-84
2023/12/04 01:39:08;;;;;;;50.75;27.75;;;0.80;99.90;;;;;;5096544;28;20046;-84
2023/12/04 01:41:34;;;;;;;47.17;26.67;;;1.00;99.90;;;;;;5135113;27;20059;-84
2023/12/04 01:44:00;;;;;;;48.77;25.70;;;0.30;99.90;;;;;;5098993;28;20118;-85
2023/12/04 01:46:25;;;;;;;49.10;26.63;;;0.60;99.90;;;;;;5096877;28;20054;-84
2023/12/04 01:48:52;;;;;;;53.03;27.00;;;0.70;99.90;;;;;;5113117;28;20061;-83
2023/12/04 01:51:20;;;;;;;48.28;27.45;;;0.70;99.90;;;;;;5096831;28;20055;-83
2023/12/04 01:53:47;;;;;;;48.92;27.08;;;1.00;99.90;;;;;;5112774;28;20047;-84
2023/12/04 01:56:14;;;;;;;49.35;27.17;;;0.90;99.90;;;;;;5096765;28;20051;-84
2023/12/04 01:58:40;;;;;;;52.50;27.70;;;0.30;99.90;;;;;;5103498;28;20051;-84
2023/12/04 02:01:06;;;;;;;50.60;27.30;;;0.10;99.90;;;;;;5090109;28;20055;-84
2023/12/04 02:03:33;;;;;;;50.78;28.50;;;-0.30;99.90;;;;;;5095215;28;20077;-85
2023/12/04 02:06:03;;;;;;;52.63;29.02;;;-0.20;99.90;;;;;;5079382;28;20131;-83
2023/12/04 02:08:30;;;;;;;47.55;24.52;;;-0.30;99.90;;;;;;5079385;28;20035;-84
2023/12/04 02:10:55;;;;;;;49.50;28.02;;;-0.20;99.90;;;;;;5112717;28;20471;-84
2023/12/04 02:13:21;;;;;;;59.33;29.47;;;1.20;99.90;;;;;;5095942;28;20096;-84
2023/12/04 02:15:51;;;;;;;51.00;29.30;;;1.10;99.90;;;;;;5112455;28;20080;-84
2023/12/04 02:18:18;;;;;;;49.95;26.58;;;0.80;99.90;;;;;;5095624;28;20050;-84
2023/12/04 02:20:43;;;;;;;;;;;0.90;99.90;;;;;;5112179;28;20044;-84
2023/12/04 02:23:09;;;;;;;50.97;27.60;;;-0.20;99.90;;;;;;5096073;28;19926;-83
2023/12/04 02:25:35;;;;;;;45.80;26.20;;;0.80;99.90;;;;;;5112534;28;20059;-86
2023/12/04 02:28:04;;;;;;;51.33;26.80;;;-0.20;99.90;;;;;;5112367;28;20039;-83
2023/12/04 02:30:31;;;;;;;46.85;26.02;;;-0.20;99.90;;;;;;5112818;28;20118;-83
2023/12/04 02:32:59;;;;;;;50.08;26.45;;;-0.20;99.90;;;;;;5095185;28;20048;-83
2023/12/04 02:35:29;;;;;;;47.90;25.58;;;0.10;99.90;;;;;;5112904;28;20043;-84
2023/12/04 02:37:58;;;;;;;44.38;26.95;;;1.00;99.90;;;;;;5111962;28;20286;-85
2023/12/04 02:40:25;;;;;;;48.17;25.73;;;1.00;99.90;;;;;;5095384;28;20043;-83
2023/12/04 02:42:51;;;;;;;44.08;25.75;;;1.00;99.90;;;;;;5095309;28;20047;-84
2023/12/04 02:45:16;;;;;;;50.00;26.20;;;0.90;99.90;;;;;;5095518;28;20039;-83
2023/12/04 02:47:42;;;;;;;49.77;25.43;;;-0.20;99.90;;;;;;5094355;28;20079;-84
2023/12/04 02:50:08;;;;;;;48.00;24.57;;;1.20;99.90;;;;;;5095598;28;20126;-83
2023/12/04 02:52:33;;;;;;;45.07;24.40;;;-0.10;99.90;;;;;;5112542;28;20039;-83
2023/12/04 02:54:59;;;;;;;47.30;24.77;;;1.20;99.90;;;;;;5094916;28;20039;-83
2023/12/04 02:57:25;;;;;;;47.93;25.47;;;1.20;99.90;;;;;;5095347;28;20084;-83
2023/12/04 02:59:50;;;;;;;48.10;23.83;;;0.10;99.90;;;;;;5093972;28;20131;-84
2023/12/04 03:02:16;;;;;;;47.13;24.23;;;1.00;99.90;;;;;;5094949;28;20050;-84
2023/12/04 03:04:42;;;;;;;51.73;26.63;;;-0.10;99.90;;;;;;5077831;28;20444;-84
2023/12/04 03:07:08;;;;;;;40.63;23.27;;;1.20;99.90;;;;;;5112063;28;20068;-83
2023/12/04 03:09:33;;;;;;;50.70;27.07;;;-0.10;99.90;;;;;;5095163;28;20048;-83
2023/12/04 03:12:02;;;;;;;45.55;25.50;;;-0.10;99.90;;;;;;5094506;28;20051;-83
2023/12/04 03:14:27;;;;;;;47.80;26.27;;;-0.10;99.90;;;;;;5078541;28;20040;-83
2023/12/04 03:16:53;;;;;;;42.53;23.03;;;1.20;99.90;;;;;;5111436;28;20188;-83
2023/12/04 03:19:19;;;;;;;46.87;24.23;;;-0.10;99.90;;;;;;5111368;28;20116;-84
2023/12/04 03:21:44;;;;;;;42.20;23.97;;;1.20;99.90;;;;;;5110932;28;20040;-83
2023/12/04 03:24:10;;;;;;;43.93;23.07;;;-0.10;99.90;;;;;;5094558;28;20054;-83
2023/12/04 03:26:36;;;;;;;42.53;22.53;;;1.30;99.90;;;;;;5111860;28;20044;-84
2023/12/04 03:29:01;;;;;;;44.20;23.70;;;1.00;99.90;;;;;;5110720;28;20627;-83
2023/12/04 03:31:28;;;;;;;49.07;25.43;;;1.30;99.90;;;;;;5094926;28;20482;-84
2023/12/04 03:33:54;;;;;;;48.70;26.58;;;1.20;99.90;;;;;;5094360;28;20131;-84
2023/12/04 03:36:19;;;;;;;40.77;22.63;;;1.10;99.90;;;;;;5094755;28;20071;-83
2023/12/04 03:38:45;;;;;;;44.97;24.00;;;-0.10;99.90;;;;;;5094093;28;20056;-84
2023/12/04 03:41:15;;;;;;;40.40;23.03;;;-0.10;99.90;;;;;;5094706;28;20050;-83
2023/12/04 03:43:41;;;;;;;41.72;22.42;;;1.10;99.90;;;;;;5111804;28;20167;-83
2023/12/04 03:46:06;;;;;;;43.20;24.37;;;0.00;99.90;;;;;;5094308;28;20043;-83
2023/12/04 03:48:32;;;;;;;38.87;23.80;;;0.00;99.90;;;;;;5094007;28;20791;-83
2023/12/04 03:50:59;;;;;;;43.67;23.17;;;0.00;99.90;;;;;;5110500;28;20491;-84
2023/12/04 03:53:25;;;;;;;;;;;-0.10;99.90;;;;;;5112255;28;20087;-83
2023/12/04 03:55:50;;;;;;;42.95;22.48;;;1.20;99.90;;;;;;5077045;28;19959;-84
2023/12/04 03:58:16;;;;;;;40.43;22.17;;;-0.10;99.90;;;;;;5078015;28;20420;-84
2023/12/04 04:00:43;;;;;;;37.50;22.67;;;1.10;99.90;;;;;;5093516;28;20056;-84
2023/12/04 04:03:09;;;;;;;40.35;23.02;;;1.30;99.90;;;;;;5094890;28;20479;-83
2023/12/04 04:05:35;;;;;;;40.88;22.08;;;0.90;99.90;;;;;;5078550;28;20056;-83
2023/12/04 04:08:02;;;;;;;41.30;23.40;;;0.00;99.90;;;;;;5094782;28;20486;-83
2023/12/04 04:10:28;;;;;;;41.40;22.50;;;0.00;99.90;;;;;;5078819;28;20289;-83
2023/12/04 04:12:53;;;;;;;46.03;25.07;;;0.90;99.90;;;;;;5114812;28;20384;-84
2023/12/04 04:15:19;;;;;;;41.70;22.17;;;0.60;99.90;;;;;;5097997;28;20040;-84
2023/12/04 04:17:45;;;;;;;42.67;21.97;;;1.10;99.90;;;;;;5098126;28;20122;-83
2023/12/04 04:20:12;;;;;;;41.03;22.03;;;0.00;99.90;;;;;;5062857;28;20044;-83
2023/12/04 04:22:39;;;;;;;38.55;20.52;;;0.00;99.90;;;;;;5081609;28;20410;-83
2023/12/04 04:25:08;;;;;;;37.33;22.73;;;1.30;99.90;;;;;;5081527;28;20100;-84
2023/12/04 04:27:34;;;;;;;42.80;24.27;;;1.40;99.90;;;;;;5116013;28;20046;-83
2023/12/04 04:30:01;;;;;;;41.20;22.43;;;-0.10;99.90;;;;;;5114357;28;20039;-84
2023/12/04 04:32:26;;;;;;;38.53;23.13;;;0.00;99.90;;;;;;5114863;28;20055;-83
2023/12/04 04:34:52;;;;;;;40.97;22.00;;;1.20;99.90;;;;;;5081037;28;20100;-84
2023/12/04 04:37:18;;;;;;;42.20;22.20;;;0.00;99.90;;;;;;5098081;28;20126;-83
2023/12/04 04:39:44;;;;;;;39.25;21.05;;;0.00;99.90;;;;;;5115245;28;20094;-83
2023/12/04 04:42:10;;;;;;;41.80;21.73;;;-0.10;99.90;;;;;;5080177;28;20546;-83
2023/12/04 04:44:35;;;;;;;35.93;20.60;;;1.40;99.90;;;;;;5081035;28;20090;-83
2023/12/04 04:47:02;;;;;;;42.37;22.27;;;0.10;99.90;;;;;;5080513;28;20075;-85
2023/12/04 04:49:27;;;;;;;43.75;21.73;;;0.80;99.90;;;;;;5097380;28;20044;-83
2023/12/04 04:51:53;;;;;;;32.43;20.87;;;0.00;99.90;;;;;;5080731;28;20096;-84
2023/12/04 04:54:19;;;;;;;38.23;21.63;;;-0.10;99.90;;;;;;5097848;28;20051;-83
2023/12/04 04:56:45;;;;;;;36.27;20.80;;;0.40;99.90;;;;;;5114829;28;20073;-83
2023/12/04 04:59:10;;;;;;;32.70;18.87;;;1.30;99.90;;;;;;5113921;28;20039;-83
2023/12/04 05:01:36;;;;;;;38.63;21.77;;;-0.10;99.90;;;;;;5096908;28;20494;-84
2023/12/04 05:04:02;;;;;;;36.78;20.98;;;0.80;99.90;;;;;;5113662;28;20083;-84
2023/12/04 05:06:28;;;;;;;41.30;22.80;;;0.00;99.90;;;;;;5097379;28;20078;-84
2023/12/04 05:08:54;;;;;;;39.13;20.90;;;0.10;99.90;;;;;;5097241;28;20035;-86
2023/12/04 05:11:19;;;;;;;38.97;21.37;;;-0.10;99.90;;;;;;5079726;28;20505;-83
2023/12/04 05:13:45;;;;;;;33.90;19.43;;;1.40;99.90;;;;;;5096746;28;20043;-83
2023/12/04 05:16:11;;;;;;;35.67;19.13;;;0.60;99.90;;;;;;5104393;28;20069;-83
2023/12/04 05:18:38;;;;;;;39.57;22.10;;;1.00;99.90;;;;;;5112539;28;20483;-83
2023/12/04 05:21:09;;;;;;;34.75;21.73;;;0.00;99.90;;;;;;5113787;28;20147;-83
2023/12/04 05:23:34;;;;;;;34.95;20.73;;;1.10;99.90;;;;;;5096290;28;20063;-83
2023/12/04 05:26:00;;;;;;;30.80;20.03;;;0.00;99.90;;;;;;5107167;28;20140;-84
2023/12/04 05:28:26;;;;;;;34.07;19.70;;;0.00;99.90;;;;;;5103564;28;20042;-83
2023/12/04 05:30:51;;;;;;;32.90;19.30;;;0.80;99.90;;;;;;5113889;28;20504;-83
2023/12/04 05:33:17;;;;;;;33.57;19.27;;;0.00;99.90;;;;;;5091768;28;20040;-84
2023/12/04 05:35:43;;;;;;;38.30;21.53;;;1.10;99.90;;;;;;5080115;28;20049;-83
2023/12/04 05:38:08;;;;;;;33.97;19.57;;;0.40;99.90;;;;;;5079391;28;20047;-83
2023/12/04 05:40:34;;;;;;;30.67;18.73;;;1.10;99.90;;;;;;5096955;28;20043;-83
2023/12/04 05:43:00;;;;;;;35.00;20.50;;;0.00;99.90;;;;;;5113503;28;20048;-86
2023/12/04 05:45:26;;;;;;;31.87;18.70;;;0.60;99.90;;;;;;5096113;28;20563;-84
2023/12/04 05:47:52;;;;;;;33.87;19.93;;;1.20;99.90;;;;;;5096850;28;20093;-83
2023/12/04 05:50:18;;;;;;;29.27;18.30;;;1.20;99.90;;;;;;5113292;28;20051;-84
2023/12/04 05:52:44;;;;;;;35.70;19.37;;;0.00;99.90;;;;;;5114054;28;20146;-83
2023/12/04 05:55:10;;;;;;;32.70;18.57;;;0.10;99.90;;;;;;5113684;28;20062;-84
2023/12/04 05:57:38;;;;;;;32.47;21.17;;;0.00;99.90;;;;;;5097102;28;20047;-83
2023/12/04 06:00:05;;;;;;;28.05;17.95;;;1.20;99.90;;;;;;5096458;28;20388;-83
2023/12/04 06:02:32;;;;;;;33.22;19.13;;;0.00;99.90;;;;;;5080026;28;20396;-83
2023/12/04 06:04:57;;;;;;;30.30;17.35;;;0.00;99.90;;;;;;5113518;28;20490;-83
2023/12/04 06:07:23;;;;;;;35.97;19.80;;;0.60;99.90;;;;;;5113302;28;20039;-83
2023/12/04 06:09:49;;;;;;;31.17;18.60;;;1.30;99.90;;;;;;5113618;28;20047;-83
2023/12/04 06:12:14;;;;;;;32.27;17.97;;;0.00;99.90;;;;;;5112264;28;20036;-84
2023/12/04 06:14:40;;;;;;;31.70;19.70;;;1.30;99.90;;;;;;5064556;28;20483;-84
2023/12/04 06:17:06;;;;;;;31.27;18.77;;;0.00;99.90;;;;;;5090775;28;20047;-84
2023/12/04 06:19:32;;;;;;;36.10;20.33;;;1.40;99.90;;;;;;5105586;28;20040;-84
2023/12/04 06:21:58;;;;;;;31.67;19.97;;;1.40;99.90;;;;;;5078789;28;20048;-84
2023/12/04 06:24:24;;;;;;;32.07;18.10;;;0.10;99.90;;;;;;5095843;28;20055;-84
2023/12/04 06:26:51;;;;;;;32.83;17.67;;;0.10;99.90;;;;;;5112677;28;20043;-84
2023/12/04 06:29:20;;;;;;;;;;;0.00;99.90;;;;;;5092511;28;20123;-83
2023/12/04 06:31:46;;;;;;;32.80;18.73;;;0.00;99.90;;;;;;5110163;28;19920;-84
2023/12/04 06:34:12;;;;;;;30.47;17.03;;;0.10;99.90;;;;;;5110957;28;20075;-84
2023/12/04 06:36:40;;;;;;;32.33;17.23;;;0.00;99.90;;;;;;5096258;28;20810;-83
2023/12/04 06:39:11;;;;;;;30.40;16.67;;;0.00;99.90;;;;;;5110734;28;20047;-84
2023/12/04 06:41:38;;;;;;;32.78;19.17;;;0.00;99.90;;;;;;5096214;28;20120;-82
2023/12/04 06:44:04;;;;;;;31.75;18.63;;;0.00;99.90;;;;;;5095474;28;20048;-83
2023/12/04 06:46:31;;;;;;;26.20;16.97;;;0.00;99.90;;;;;;5129128;27;20093;-84
2023/12/04 06:49:00;;;;;;;29.23;17.48;;;0.00;99.90;;;;;;5094813;28;20046;-84
2023/12/04 06:51:28;;;;;;;29.35;16.75;;;0.00;99.90;;;;;;5096128;28;20047;-83
2023/12/04 06:53:54;;;;;;;26.75;16.65;;;-0.10;99.90;;;;;;5109590;28;20122;-83
2023/12/04 06:56:19;;;;;;;27.63;16.43;;;0.50;99.90;;;;;;5112097;28;20085;-84
2023/12/04 06:58:45;;;;;;;28.57;16.73;;;0.00;99.90;;;;;;5094933;28;20057;-84
2023/12/04 07:01:11;;;;;;;27.17;15.83;;;1.40;99.90;;;;;;5095742;28;20134;-84
2023/12/04 07:03:36;;;;;;;31.10;16.53;;;1.30;99.90;;;;;;5078696;28;20092;-84
2023/12/04 07:06:02;;;;;;;28.40;17.07;;;1.40;99.90;;;;;;5092550;28;20552;-85
2023/12/04 07:08:28;;;;;;;31.03;15.20;;;-0.10;99.90;;;;;;5111521;28;20043;-85
2023/12/04 07:10:53;;;;;;;26.07;16.30;;;1.10;99.90;;;;;;5112353;28;20557;-84
2023/12/04 07:13:19;;;;;;;22.93;13.77;;;0.80;99.90;;;;;;5112192;28;20043;-84
2023/12/04 07:15:45;;;;;;;28.17;15.57;;;-0.10;99.90;;;;;;5078733;28;20206;-84
2023/12/04 07:18:11;;;;;;;24.93;16.20;;;0.50;99.90;;;;;;5061602;28;20039;-85
2023/12/04 07:20:36;;;;;;;31.07;16.17;;;-0.10;99.90;;;;;;5112453;28;20035;-84
2023/12/04 07:23:02;;;;;;;24.77;15.20;;;-0.10;99.90;;;;;;5078615;28;20490;-84
2023/12/04 07:25:28;;;;;;;23.30;14.37;;;1.40;99.90;;;;;;5111964;28;20043;-84
2023/12/04 07:27:53;;;;;;;28.33;16.07;;;-0.10;99.90;;;;;;5112385;28;20039;-84
2023/12/04 07:30:20;;;;;;;22.53;14.20;;;-0.10;99.90;;;;;;5095115;28;20043;-85
2023/12/04 07:32:46;;;;;;;;;;;-0.10;99.90;;;;;;5062922;28;20043;-85
2023/12/04 07:35:12;;;;;;;23.27;14.63;;;-0.10;99.90;;;;;;5112183;28;19926;-85
2023/12/04 07:37:38;;;;;;;24.27;14.43;;;0.00;99.90;;;;;;5078614;28;20065;-85
2023/12/04 07:40:05;;;;;;;25.57;15.27;;;0.10;99.90;;;;;;5095293;28;20123;-85
2023/12/04 07:42:31;;;;;;;21.58;13.73;;;0.00;99.90;;;;;;5111464;28;20048;-85
2023/12/04 07:44:57;;;;;;;25.17;16.23;;;0.00;99.90;;;;;;5078378;28;20054;-85
2023/12/04 07:47:23;;;;;;;25.23;14.83;;;0.20;99.90;;;;;;5094143;28;20043;-85
2023/12/04 07:49:49;;;;;;;24.33;13.60;;;1.40;99.90;;;;;;5095289;28;20054;-85
2023/12/04 07:52:15;;;;;;;25.70;14.73;;;0.00;99.90;;;;;;5094909;28;20055;-88
2023/12/04 07:54:40;;;;;;;23.63;14.17;;;0.20;99.90;;;;;;5112459;28;20048;-85
2023/12/04 07:57:06;;;;;;;21.43;14.23;;;0.00;99.90;;;;;;5112071;28;20047;-85
2023/12/04 07:59:32;;;;;;;22.70;14.13;;;1.30;99.90;;;;;;5111527;28;20058;-85
2023/12/04 08:01:57;;;;;;;20.13;13.17;;;0.00;99.90;;;;;;5095122;28;20048;-85
2023/12/04 08:04:23;;;;;;;22.93;14.17;;;0.00;99.90;;;;;;5094688;28;20032;-85
2023/12/04 08:06:50;;;;;;;19.97;12.37;;;0.00;99.90;;;;;;5077658;28;20066;-85
2023/12/04 08:09:16;;;;;;;24.90;13.63;;;1.20;99.90;;;;;;5078132;28;20418;-85
2023/12/04 08:11:42;;;;;;;24.63;12.75;;;0.20;99.90;;;;;;5095042;28;20104;-85
2023/12/04 08:14:08;;;;;;;21.50;13.30;;;0.50;99.90;;;;;;5094388;28;20436;-85
2023/12/04 08:16:33;;;;;;;19.70;12.27;;;0.10;99.90;;;;;;5061130;28;20130;-86
2023/12/04 08:18:59;;;;;;;21.50;13.13;;;1.50;99.90;;;;;;5078399;28;20105;-85
2023/12/04 08:21:25;;;;;;;17.93;11.60;;;1.50;99.90;;;;;;5094519;28;20060;-85
2023/12/04 08:23:51;;;;;;;20.63;12.13;;;1.40;99.90;;;;;;5111615;28;20376;-85
2023/12/04 08:26:24;;;;;;;18.03;11.97;;;0.40;99.90;;;;;;5095054;28;20126;-85
2023/12/04 08:28:50;;;;;;;20.52;11.75;;;0.10;99.90;;;;;;5077834;28;20044;-85
2023/12/04 08:31:16;;;;;;;19.77;11.52;;;0.20;99.90;;;;;;5094831;28;20050;-85
2023/12/04 08:33:42;;;;;;;22.50;13.18;;;1.10;99.90;;;;;;5094481;28;20083;-86
2023/12/04 08:36:11;;;;;;;17.47;11.43;;;1.50;99.90;;;;;;5094934;28;20236;-85
2023/12/04 08:38:40;;;;;;;17.02;10.45;;;0.20;99.90;;;;;;5061764;28;20062;-85
2023/12/04 08:41:06;;;;;;;20.38;12.50;;;0.20;99.90;;;;;;5094747;28;20050;-85
2023/12/04 08:43:31;;;;;;;16.60;10.10;;;0.20;99.90;;;;;;5094326;28;20073;-85
2023/12/04 08:45:57;;;;;;;18.33;11.33;;;0.20;99.90;;;;;;5113204;28;20051;-85
2023/12/04 08:48:23;;;;;;;18.03;11.17;;;1.10;99.90;;;;;;5114708;28;20054;-86
2023/12/04 08:50:49;;;;;;;18.30;11.07;;;0.20;99.90;;;;;;5064799;28;20047;-85
2023/12/04 08:53:17;;;;;;;16.13;10.43;;;1.40;99.90;;;;;;5098168;28;20081;-85
2023/12/04 08:55:42;;;;;;;19.55;11.20;;;0.20;99.90;;;;;;5114640;28;20079;-85
2023/12/04 08:58:10;;;;;;;18.33;11.23;;;1.60;99.90;;;;;;5115153;28;20074;-85
2023/12/04 09:00:37;;;;;;;16.10;11.10;;;1.50;99.90;;;;;;5097094;28;20055;-85
2023/12/04 09:03:03;;;;;;;;;;;1.70;99.90;;;;;;5081866;28;20126;-85
2023/12/04 09:05:28;;;;;;;15.25;10.82;;;1.60;99.90;;;;;;5080717;28;20015;-86
2023/12/04 09:07:54;;;;;;;16.70;11.47;;;-0.90;99.90;;;;;;5097873;28;20483;-85
2023/12/04 09:10:20;;;;;;;18.77;11.73;;;-0.10;99.90;;;;;;5097295;28;20079;-85
2023/12/04 09:12:46;;;;;;;14.57;9.67;;;1.50;99.90;;;;;;5113701;28;20035;-85
2023/12/04 09:15:11;;;;;;;16.20;11.10;;;1.90;99.90;;;;;;5094619;28;20036;-84
2023/12/04 09:17:37;;;;;;;17.13;10.17;;;1.30;99.90;;;;;;5097000;28;20425;-85
2023/12/04 09:20:08;;;;;;;17.80;10.20;;;1.70;99.90;;;;;;5097713;28;20093;-86
2023/12/04 09:22:38;;;;;;;13.75;9.48;;;0.40;99.90;;;;;;5114347;28;20048;-84
2023/12/04 09:25:05;;;;;;;;;;;1.70;99.90;;;;;;5098219;28;20182;-84
2023/12/04 09:27:31;;;;;;;16.75;9.50;;;0.40;99.90;;;;;;5095136;28;19920;-86
2023/12/04 09:29:56;;;;;;;14.90;9.10;;;-0.10;99.90;;;;;;5100163;28;20189;-84
2023/12/04 09:32:22;;;;;;;14.67;9.77;;;1.70;99.90;;;;;;5079391;28;20073;-84
2023/12/04 09:34:48;;;;;;;16.20;9.27;;;0.50;99.90;;;;;;5089356;28;20047;-85
2023/12/04 09:37:14;;;;;;;14.23;9.77;;;2.00;99.90;;;;;;5096382;28;20075;-85
2023/12/04 09:39:40;;;;;;;13.35;8.77;;;0.60;99.90;;;;;;5113551;28;20058;-85
2023/12/04 09:42:10;;;;;;;13.20;8.43;;;2.20;99.90;;;;;;5097230;28;20036;-85
2023/12/04 09:44:37;;;;;;;13.73;9.98;;;0.60;99.90;;;;;;5096877;28;20139;-84
2023/12/04 09:47:04;;;;;;;12.73;10.32;;;0.90;99.90;;;;;;5109921;28;20406;-85
2023/12/04 09:49:31;;;;;;;15.40;9.38;;;0.60;99.90;;;;;;5076390;28;20040;-87
2023/12/04 09:52:01;;;;;;;17.08;11.35;;;0.70;99.90;;;;;;5079525;28;20570;-84
2023/12/04 09:54:27;;;;;;;14.00;9.02;;;1.50;99.90;;;;;;5076867;28;20040;-84
2023/12/04 09:56:53;;;;;;;13.80;9.18;;;1.50;99.90;;;;;;5058864;28;20445;-85
2023/12/04 09:59:25;;;;;;;13.37;9.20;;;2.20;99.90;;;;;;5059633;28;20105;-85
2023/12/04 10:01:51;;;;;;;12.63;8.82;;;1.30;99.90;;;;;;5088262;28;20317;-85
2023/12/04 10:04:17;;;;;;;13.05;8.80;;;1.80;99.90;;;;;;5113521;28;20043;-85
2023/12/04 10:06:45;;;;;;;15.27;9.60;;;0.80;99.90;;;;;;5078410;28;20174;-85
2023/12/04 10:09:11;;;;;;;13.77;9.45;;;1.90;99.90;;;;;;5098301;28;20118;-85
2023/12/04 10:11:41;;;;;;;12.85;9.20;;;0.80;99.90;;;;;;5079086;28;20044;-85
2023/12/04 10:14:17;;;;;;;12.02;9.50;;;0.80;99.90;;;;;;5113348;28;20474;-84
2023/12/04 10:16:44;;;;;;;16.60;9.27;;;0.90;99.90;;;;;;5095960;28;20055;-84
2023/12/04 10:19:26;;;;;;;16.88;9.02;;;0.90;99.90;;;;;;5096342;28;20126;-84
2023/12/04 10:21:53;;;;;;;12.75;8.52;;;1.30;99.90;;;;;;5095464;28;20138;-84
2023/12/04 10:24:35;;;;;;;13.05;8.48;;;1.00;99.90;;;;;;5094617;28;20051;-85
2023/12/04 10:27:01;;;;;;;15.20;9.93;;;1.30;99.90;;;;;;5095137;28;20040;-83
2023/12/04 10:29:30;;;;;;;14.43;9.70;;;1.50;99.90;;;;;;5075766;28;20043;-86
2023/12/04 10:31:58;;;;;;;10.88;7.70;;;0.90;99.90;;;;;;5109236;28;20503;-84
2023/12/04 10:34:26;;;;;;;12.00;7.72;;;2.40;99.90;;;;;;5113039;28;20563;-84
2023/12/04 10:36:52;;;;;;;11.15;7.35;;;1.00;99.90;;;;;;5095430;28;20047;-84
2023/12/04 10:39:17;;;;;;;11.43;7.43;;;2.20;99.90;;;;;;5095951;28;20044;-84
2023/12/04 10:41:44;;;;;;;11.13;8.03;;;1.60;99.90;;;;;;5091504;27;20070;-85
2023/12/04 10:44:09;;;;;;;12.65;8.07;;;1.00;99.90;;;;;;5095088;28;20399;-84
2023/12/04 10:46:41;;;;;;;10.30;7.90;;;2.40;99.90;;;;;;5091212;28;20036;-84
2023/12/04 10:49:11;;;;;;;11.23;7.25;;;1.00;99.90;;;;;;5095581;28;20043;-84
2023/12/04 10:51:44;;;;;;;13.20;8.38;;;0.90;99.90;;;;;;5094045;27;20498;-85
2023/12/04 10:54:12;;;;;;;13.80;8.70;;;1.00;99.90;;;;;;5098290;27;20040;-84
2023/12/04 10:56:44;;;;;;;11.02;7.72;;;1.10;99.90;;;;;;5076311;28;20048;-87
2023/12/04 10:59:12;;;;;;;10.98;6.85;;;1.00;99.90;;;;;;5090890;28;20409;-84
2023/12/04 11:01:41;;;;;;;12.88;7.65;;;1.00;99.90;;;;;;5097647;28;20039;-83
2023/12/04 11:04:11;;;;;;;10.32;7.07;;;2.30;99.90;;;;;;5094793;28;20057;-84
2023/12/04 11:06:40;;;;;;;11.43;7.00;;;1.10;99.90;;;;;;5095267;28;20513;-83
2023/12/04 11:09:06;;;;;;;10.98;7.32;;;1.20;99.90;;;;;;5115583;28;20031;-85
2023/12/04 11:11:36;;;;;;;10.68;7.45;;;2.40;99.90;;;;;;5098882;28;20398;-85
2023/12/04 11:14:05;;;;;;;10.00;7.70;;;2.40;99.90;;;;;;5094472;28;20125;-86
2023/12/04 11:16:57;;;;;;;12.18;7.40;;;2.60;99.90;;;;;;5094771;28;20398;-85
2023/12/04 11:19:37;;;;;;;13.15;8.20;;;1.20;99.90;;;;;;5111714;28;20101;-85
2023/12/04 11:22:04;;;;;;;10.85;6.88;;;1.20;99.90;;;;;;5095140;28;20043;-85
2023/12/04 11:24:30;;;;;;;;;;;0.00;99.90;;;;;;5078525;28;20046;-85
2023/12/04 11:26:56;;;;;;;11.10;6.55;;;1.20;99.90;;;;;;5111236;28;19928;-84
2023/12/04 11:29:23;;;;;;;12.43;7.75;;;2.00;99.90;;;;;;5111790;28;20093;-85
2023/12/04 11:31:49;;;;;;;10.98;7.43;;;1.20;99.90;;;;;;5077788;28;20051;-85
2023/12/04 11:34:14;;;;;;;10.27;7.10;;;2.20;99.90;;;;;;5078402;28;20040;-84
2023/12/04 11:36:40;;;;;;;10.93;7.07;;;1.20;99.90;;;;;;5095030;28;20044;-84
2023/12/04 11:39:10;;;;;;;14.37;7.53;;;1.20;99.90;;;;;;5094456;28;20040;-84
2023/12/04 11:41:37;;;;;;;9.88;6.72;;;2.00;99.90;;;;;;5111957;28;20108;-84
2023/12/04 11:44:03;;;;;;;9.75;7.00;;;1.20;99.90;;;;;;5077264;28;20624;-84
2023/12/04 11:46:30;;;;;;;12.07;8.48;;;1.20;99.90;;;;;;5111951;28;20043;-84
2023/12/04 11:49:16;;;;;;;11.73;7.93;;;1.20;99.90;;;;;;5111196;28;20048;-85
2023/12/04 11:51:44;;;;;;;11.77;8.15;;;1.90;99.90;;;;;;5094403;28;20312;-84
2023/12/04 11:54:14;;;;;;;10.38;7.60;;;1.30;99.90;;;;;;5094501;28;20058;-85
2023/12/04 11:56:40;;;;;;;11.07;7.18;;;1.30;99.90;;;;;;5111772;28;20050;-84
2023/12/04 11:59:07;;;;;;;10.23;6.93;;;1.30;99.90;;;;;;5075988;28;20036;-85
2023/12/04 12:01:36;;;;;;;10.68;6.93;;;2.80;99.90;;;;;;5094477;28;20120;-84
2023/12/04 12:04:05;;;;;;;10.80;7.05;;;2.30;99.90;;;;;;5094175;28;20042;-84
2023/12/04 12:06:31;;;;;;;12.30;7.80;;;2.50;99.90;;;;;;5111436;28;20493;-85
2023/12/04 12:08:57;;;;;;;12.55;7.32;;;1.40;99.90;;;;;;5110909;28;20036;-84
2023/12/04 12:11:26;;;;;;;9.60;6.03;;;2.60;99.90;;;;;;5111644;28;20046;-84
2023/12/04 12:13:55;;;;;;;10.25;7.10;;;2.10;99.90;;;;;;5110246;28;20122;-85
2023/12/04 12:16:21;;;;;;;8.82;6.38;;;2.80;99.90;;;;;;5094655;28;20043;-84
2023/12/04 12:18:47;;;;;;;9.40;6.73;;;1.50;99.90;;;;;;5076667;28;20126;-85
2023/12/04 12:21:13;;;;;;;10.85;7.97;;;2.40;99.90;;;;;;5075912;28;20155;-84
2023/12/04 12:23:39;;;;;;;11.03;6.97;;;2.50;99.90;;;;;;5078324;28;20526;-85
2023/12/04 12:26:05;;;;;;;11.60;7.82;;;1.80;99.90;;;;;;5094533;28;20055;-85
2023/12/04 12:28:31;;;;;;;10.93;7.10;;;1.80;99.90;;;;;;5078085;28;20079;-84
2023/12/04 12:31:04;;;;;;;9.33;7.43;;;1.80;99.90;;;;;;5060941;28;20099;-85
2023/12/04 12:33:30;;;;;;;9.95;7.05;;;1.80;99.90;;;;;;5087260;28;20082;-84
2023/12/04 12:35:57;;;;;;;10.77;7.53;;;3.40;99.90;;;;;;5098096;28;20043;-84
2023/12/04 12:38:22;;;;;;;;;;;2.00;99.90;;;;;;5116339;28;20055;-84